createdAt,value
2023-04-13T00:02:23.952Z,9.82
2023-04-13T00:04:51.256Z,9.79
2023-04-13T00:07:19.046Z,9.77
2023-04-13T00:09:47.542Z,9.76
2023-04-13T00:12:15.920Z,9.74
2023-04-13T00:14:44.015Z,9.72
2023-04-13T00:17:11.096Z,9.69
2023-04-13T00:19:37.980Z,9.66
2023-04-13T00:22:04.962Z,9.62
2023-04-13T00:24:33.594Z,9.59
2023-04-13T00:27:01.283Z,9.57
2023-04-13T00:29:28.101Z,9.55
2023-04-13T00:31:54.853Z,9.52
2023-04-13T00:34:21.680Z,9.49
2023-04-13T00:36:49.259Z,9.48
2023-04-13T00:39:16.143Z,9.47
2023-04-13T00:41:43.109Z,9.44
2023-04-13T00:44:10.025Z,9.43
2023-04-13T00:46:36.873Z,9.40
2023-04-13T00:49:03.934Z,9.40
2023-04-13T00:51:30.798Z,9.40
2023-04-13T00:53:59.451Z,9.39
2023-04-13T00:56:27.273Z,9.38
2023-04-13T00:58:56.329Z,9.38
2023-04-13T01:01:23.362Z,9.37
2023-04-13T01:03:53.402Z,9.36
2023-04-13T01:06:33.710Z,9.36
2023-04-13T01:09:22.571Z,9.35
2023-04-13T01:12:00.584Z,9.33
2023-04-13T01:14:56.768Z,9.30
2023-04-13T01:17:28.705Z,9.30
2023-04-13T01:20:11.984Z,9.30
2023-04-13T01:22:45.502Z,9.29
2023-04-13T01:25:45.789Z,9.26
2023-04-13T01:28:16.657Z,9.26
2023-04-13T01:30:44.639Z,9.24
2023-04-13T01:33:12.869Z,9.24
2023-04-13T01:35:40.005Z,9.23
2023-04-13T01:38:07.526Z,9.23
2023-04-13T01:40:40.471Z,9.24
2023-04-13T01:43:10.698Z,9.21
2023-04-13T01:46:04.720Z,9.19
2023-04-13T01:48:43.192Z,9.16
2023-04-13T01:51:25.209Z,9.16
2023-04-13T01:54:13.951Z,9.12
2023-04-13T01:56:41.570Z,9.12
2023-04-13T01:59:09.391Z,9.13
2023-04-13T02:01:38.716Z,9.12
2023-04-13T02:04:07.632Z,9.11
2023-04-13T02:06:34.659Z,9.12
2023-04-13T02:09:01.625Z,9.12
2023-04-13T02:11:28.443Z,9.11
2023-04-13T02:13:57.504Z,9.13
2023-04-13T02:16:25.171Z,9.14
2023-04-13T02:18:51.978Z,9.13
2023-04-13T02:21:18.760Z,9.13
2023-04-13T02:23:45.906Z,9.14
2023-04-13T02:26:14.155Z,9.14
2023-04-13T02:28:41.648Z,9.15
2023-04-13T02:31:08.456Z,9.12
2023-04-13T02:33:35.599Z,9.13
2023-04-13T02:36:03.882Z,9.13
2023-04-13T02:38:32.039Z,9.12
2023-04-13T02:41:01.197Z,9.12
2023-04-13T02:43:28.944Z,9.11
2023-04-13T02:45:56.868Z,9.09
2023-04-13T02:48:24.043Z,9.10
2023-04-13T02:50:51.936Z,9.08
2023-04-13T02:53:18.799Z,9.07
2023-04-13T02:55:45.903Z,9.07
2023-04-13T02:58:12.680Z,9.05
2023-04-13T03:00:39.717Z,9.05
2023-04-13T03:03:06.867Z,9.04
2023-04-13T03:05:33.939Z,9.03
2023-04-13T03:08:00.891Z,9.02
2023-04-13T03:10:27.743Z,8.98
2023-04-13T03:12:54.755Z,8.97
2023-04-13T03:15:21.748Z,8.96
2023-04-13T03:17:48.692Z,8.95
2023-04-13T03:20:16.883Z,8.95
2023-04-13T03:22:45.188Z,8.92
2023-04-13T03:25:12.496Z,8.91
2023-04-13T03:27:39.300Z,8.91
2023-04-13T03:30:07.578Z,8.91
2023-04-13T03:32:34.546Z,8.90
2023-04-13T03:35:01.365Z,8.89
2023-04-13T03:37:30.236Z,8.88
2023-04-13T03:39:58.773Z,8.86
2023-04-13T03:42:25.584Z,8.85
2023-04-13T03:44:52.997Z,8.84
2023-04-13T03:47:19.903Z,8.83
2023-04-13T03:49:47.040Z,8.82
2023-04-13T03:52:14.064Z,8.80
2023-04-13T03:54:40.857Z,8.81
2023-04-13T03:57:07.791Z,8.81
2023-04-13T03:59:34.623Z,8.81
2023-04-13T04:02:02.867Z,8.81
2023-04-13T04:04:29.953Z,8.78
2023-04-13T04:06:57.892Z,8.78
2023-04-13T04:09:25.405Z,8.77
2023-04-13T04:11:52.214Z,8.77
2023-04-13T04:14:19.473Z,8.78
2023-04-13T04:16:46.461Z,8.77
2023-04-13T04:19:13.259Z,8.77
2023-04-13T04:21:44.532Z,8.76
2023-04-13T04:24:12.410Z,8.75
2023-04-13T04:26:40.191Z,8.76
2023-04-13T04:29:08.784Z,8.77
2023-04-13T04:31:37.452Z,8.77
2023-04-13T04:34:04.751Z,8.78
2023-04-13T04:36:31.513Z,8.79
2023-04-13T04:39:01.965Z,8.82
2023-04-13T04:41:29.078Z,8.86
2023-04-13T04:43:56.808Z,8.91
2023-04-13T04:46:25.827Z,8.98
2023-04-13T04:48:54.614Z,9.07
2023-04-13T04:51:24.834Z,9.10
2023-04-13T04:53:52.950Z,9.17
2023-04-13T04:56:21.186Z,9.23
2023-04-13T04:58:47.960Z,9.34
2023-04-13T05:01:17.968Z,9.42
2023-04-13T05:03:44.949Z,9.52
2023-04-13T05:06:12.296Z,9.63
2023-04-13T05:08:39.084Z,9.73
2023-04-13T05:11:07.241Z,9.83
2023-04-13T05:13:34.088Z,9.88
2023-04-13T05:16:00.904Z,9.94
2023-04-13T05:18:34.971Z,9.97
2023-04-13T05:21:01.700Z,10.00
2023-04-13T05:23:28.560Z,10.05
2023-04-13T05:25:56.719Z,10.07
2023-04-13T05:28:23.523Z,10.10
2023-04-13T05:30:50.308Z,10.12
2023-04-13T05:33:17.088Z,10.15
2023-04-13T05:35:44.050Z,10.18
2023-04-13T05:38:10.850Z,10.21
2023-04-13T05:40:37.628Z,10.25
2023-04-13T05:43:05.210Z,10.30
2023-04-13T05:45:32.988Z,10.35
2023-04-13T05:47:59.867Z,10.40
2023-04-13T05:50:28.380Z,10.46
2023-04-13T05:52:55.883Z,10.53
2023-04-13T05:55:30.026Z,10.62
2023-04-13T05:57:56.898Z,10.82
2023-04-13T06:00:23.838Z,11.08
2023-04-13T06:02:50.781Z,11.31
2023-04-13T06:05:18.652Z,11.49
2023-04-13T06:07:48.912Z,11.63
2023-04-13T06:10:17.891Z,11.71
2023-04-13T06:12:48.294Z,11.75
2023-04-13T06:15:15.548Z,11.86
2023-04-13T06:17:42.332Z,11.95
2023-04-13T06:20:10.808Z,12.25
2023-04-13T06:22:37.600Z,12.75
2023-04-13T06:25:04.870Z,13.32
2023-04-13T06:27:33.625Z,13.85
2023-04-13T06:30:01.143Z,14.43
2023-04-13T06:32:28.005Z,14.99
2023-04-13T06:34:55.841Z,15.53
2023-04-13T06:37:23.542Z,16.00
2023-04-13T06:39:50.422Z,16.36
2023-04-13T06:42:18.930Z,16.69
2023-04-13T06:44:45.846Z,17.05
2023-04-13T06:47:12.641Z,17.39
2023-04-13T06:49:39.417Z,17.63
2023-04-13T06:52:06.293Z,17.58
2023-04-13T06:54:35.725Z,17.32
2023-04-13T06:57:02.756Z,16.94
2023-04-13T06:59:29.554Z,16.53
2023-04-13T07:01:56.831Z,16.15
2023-04-13T07:04:26.481Z,15.79
2023-04-13T07:06:54.998Z,15.48
2023-04-13T07:09:21.760Z,15.21
2023-04-13T07:11:48.606Z,14.99
2023-04-13T07:14:15.453Z,14.78
2023-04-13T07:16:42.244Z,14.59
2023-04-13T07:19:09.065Z,14.44
2023-04-13T07:21:35.891Z,14.31
2023-04-13T07:24:02.719Z,14.23
2023-04-13T07:26:29.458Z,14.18
2023-04-13T07:28:56.398Z,14.13
2023-04-13T07:31:23.626Z,14.12
2023-04-13T07:33:50.696Z,14.09
2023-04-13T07:36:17.866Z,14.05
2023-04-13T07:38:44.697Z,13.97
2023-04-13T07:41:11.574Z,13.89
2023-04-13T07:43:38.379Z,13.85
2023-04-13T07:46:12.580Z,13.79
2023-04-13T07:48:43.207Z,13.67
2023-04-13T07:51:18.629Z,13.61
2023-04-13T07:53:45.419Z,13.57
2023-04-13T07:56:12.400Z,13.55
2023-04-13T07:58:39.184Z,13.54
2023-04-13T08:01:06.983Z,13.48
2023-04-13T08:03:35.232Z,13.43
2023-04-13T08:06:06.272Z,13.40
2023-04-13T08:08:33.706Z,13.36
2023-04-13T08:11:01.331Z,13.33
2023-04-13T08:13:29.964Z,13.32
2023-04-13T08:15:57.684Z,13.26
2023-04-13T08:18:24.753Z,13.21
2023-04-13T08:20:51.541Z,13.15
2023-04-13T08:23:18.342Z,13.13
2023-04-13T08:25:45.383Z,13.08
2023-04-13T08:28:13.176Z,13.07
2023-04-13T08:30:41.010Z,13.07
2023-04-13T08:33:08.604Z,13.08
2023-04-13T08:35:39.690Z,13.09
2023-04-13T08:38:09.226Z,13.10
2023-04-13T08:40:40.694Z,13.12
2023-04-13T08:43:07.684Z,13.18
2023-04-13T08:45:41.539Z,13.27
2023-04-13T08:48:13.535Z,13.35
2023-04-13T08:50:40.491Z,13.48
2023-04-13T08:53:07.342Z,13.62
2023-04-13T08:55:34.314Z,13.78
2023-04-13T08:58:04.156Z,13.96
2023-04-13T09:00:31.171Z,14.16
2023-04-13T09:03:05.356Z,14.38
2023-04-13T09:05:38.983Z,14.61
2023-04-13T09:08:08.529Z,14.83
2023-04-13T09:10:35.613Z,15.02
2023-04-13T09:13:03.097Z,15.19
2023-04-13T09:15:31.724Z,15.37
2023-04-13T09:18:10.465Z,15.57
2023-04-13T09:20:43.499Z,15.76
2023-04-13T09:23:15.900Z,15.89
2023-04-13T09:25:45.266Z,15.95
2023-04-13T09:28:19.472Z,15.98
2023-04-13T09:30:46.986Z,16.02
2023-04-13T09:35:42.711Z,15.92
2023-04-13T09:38:11.646Z,15.86
2023-04-13T09:40:48.770Z,15.86
2023-04-13T09:43:15.551Z,15.87
2023-04-13T09:45:46.288Z,15.93
2023-04-13T09:48:23.071Z,16.05
2023-04-13T09:51:05.336Z,16.24
2023-04-13T09:53:47.422Z,16.48
2023-04-13T09:56:16.997Z,16.69
2023-04-13T09:58:46.065Z,16.87
2023-04-13T10:01:17.142Z,17.05
2023-04-13T10:03:44.674Z,17.18
2023-04-13T10:06:14.405Z,17.27
2023-04-13T10:08:43.771Z,17.37
2023-04-13T10:11:14.988Z,17.46
2023-04-13T10:13:52.420Z,17.52
2023-04-13T10:16:46.424Z,17.52
2023-04-13T10:19:17.020Z,17.50
2023-04-13T10:21:47.505Z,17.45
2023-04-13T10:24:15.239Z,17.39
2023-04-13T10:26:45.842Z,17.39
2023-04-13T10:29:14.649Z,17.36
2023-04-13T10:31:48.144Z,17.31
2023-04-13T10:34:27.150Z,17.28
2023-04-13T10:37:06.071Z,17.28
2023-04-13T10:39:35.735Z,17.38
2023-04-13T10:42:03.010Z,17.49
2023-04-13T10:44:51.706Z,17.60
2023-04-13T10:47:21.357Z,17.69
2023-04-13T10:49:50.460Z,17.81
2023-04-13T10:52:17.867Z,17.95
2023-04-13T10:54:45.078Z,18.08
2023-04-13T10:57:12.612Z,18.19
2023-04-13T10:59:59.302Z,18.28
2023-04-13T11:02:34.745Z,18.38
2023-04-13T11:05:02.048Z,18.38
2023-04-13T11:07:29.563Z,18.40
2023-04-13T11:12:28.377Z,18.47
2023-04-13T11:14:55.291Z,18.52
2023-04-13T11:17:22.378Z,18.51
2023-04-13T11:19:55.534Z,18.40
2023-04-13T11:22:24.402Z,18.30
2023-04-13T11:24:51.778Z,18.24
2023-04-13T11:27:26.982Z,18.19
2023-04-13T11:30:09.164Z,18.14
2023-04-13T11:32:41.525Z,18.09
2023-04-13T11:35:14.637Z,18.02
2023-04-13T11:37:49.245Z,18.00
2023-04-13T11:40:21.404Z,17.97
2023-04-13T11:42:51.579Z,17.96
2023-04-13T11:45:21.202Z,17.98
2023-04-13T11:47:50.668Z,18.03
2023-04-13T11:50:19.166Z,18.07
2023-04-13T11:52:47.598Z,18.14
2023-04-13T11:55:23.236Z,18.18
2023-04-13T11:57:53.314Z,18.25
2023-04-13T12:00:27.165Z,18.39
2023-04-13T12:05:30.102Z,18.50
2023-04-13T12:07:58.752Z,18.55
2023-04-13T12:10:38.491Z,18.56
2023-04-13T12:16:05.482Z,18.51
2023-04-13T12:18:49.483Z,18.56
2023-04-13T12:21:17.802Z,18.61
2023-04-13T12:23:59.821Z,18.67
2023-04-13T12:29:05.855Z,18.70
2023-04-13T12:31:35.353Z,18.67
2023-04-13T12:34:03.929Z,18.66
2023-04-13T12:36:31.737Z,18.61
2023-04-13T12:39:02.606Z,18.59
2023-04-13T12:41:29.476Z,18.58
2023-04-13T12:43:56.302Z,18.57
2023-04-13T12:46:24.928Z,18.58
2023-04-13T12:48:52.545Z,18.60
2023-04-13T12:51:19.391Z,18.67
2023-04-13T12:53:46.531Z,18.73
2023-04-13T12:56:13.457Z,18.79
2023-04-13T12:58:40.290Z,18.83
2023-04-13T13:01:07.205Z,18.87
2023-04-13T13:03:34.802Z,18.90
2023-04-13T13:06:01.620Z,18.91
2023-04-13T13:08:28.487Z,18.95
2023-04-13T13:10:55.949Z,18.99
2023-04-13T13:13:22.854Z,19.05
2023-04-13T13:15:49.670Z,19.07
2023-04-13T13:18:16.614Z,19.09
2023-04-13T13:20:45.592Z,19.10
2023-04-13T13:23:12.925Z,19.12
2023-04-13T13:25:56.949Z,19.17
2023-04-13T13:28:31.179Z,19.17
2023-04-13T13:30:57.937Z,19.12
2023-04-13T13:33:24.828Z,19.03
2023-04-13T13:35:52.140Z,18.91
2023-04-13T13:38:18.946Z,18.86
2023-04-13T13:40:47.048Z,18.85
2023-04-13T13:43:14.141Z,18.80
2023-04-13T13:45:41.420Z,18.76
2023-04-13T13:48:08.573Z,18.76
2023-04-13T13:50:35.451Z,18.88
2023-04-13T13:53:04.183Z,19.04
2023-04-13T13:55:32.223Z,19.20
2023-04-13T13:57:59.279Z,19.34
2023-04-13T14:00:27.079Z,19.37
2023-04-13T14:02:54.076Z,19.35
2023-04-13T14:05:22.553Z,19.37
2023-04-13T14:07:49.446Z,19.47
2023-04-13T14:10:16.632Z,19.58
2023-04-13T14:12:49.626Z,19.62
2023-04-13T14:15:17.155Z,19.61
2023-04-13T14:17:45.544Z,19.59
2023-04-13T14:20:17.158Z,19.51
2023-04-13T14:22:43.949Z,19.45
2023-04-13T14:25:11.145Z,19.37
2023-04-13T14:27:38.471Z,19.30
2023-04-13T14:30:06.054Z,19.26
2023-04-13T14:32:33.014Z,19.18
2023-04-13T14:35:00.594Z,19.11
2023-04-13T14:37:28.136Z,19.09
2023-04-13T14:39:55.151Z,19.06
2023-04-13T14:42:24.124Z,19.05
2023-04-13T14:44:54.115Z,19.07
2023-04-13T14:47:21.001Z,19.12
2023-04-13T14:49:47.990Z,19.23
2023-04-13T14:52:15.107Z,19.31
2023-04-13T14:54:42.412Z,19.38
2023-04-13T14:57:10.679Z,19.41
2023-04-13T14:59:38.141Z,19.42
2023-04-13T15:02:06.333Z,19.45
2023-04-13T15:04:33.285Z,19.49
2023-04-13T15:07:00.217Z,19.48
2023-04-13T15:09:27.338Z,19.47
2023-04-13T15:11:54.167Z,19.46
2023-04-13T15:14:21.141Z,19.45
2023-04-13T15:16:48.001Z,19.43
2023-04-13T15:19:14.802Z,19.38
2023-04-13T15:21:41.710Z,19.33
2023-04-13T15:24:09.969Z,19.24
2023-04-13T15:26:41.701Z,19.15
2023-04-13T15:29:10.880Z,19.04
2023-04-13T15:31:38.947Z,18.92
2023-04-13T15:34:08.433Z,18.83
2023-04-13T15:36:36.318Z,18.73
2023-04-13T15:39:04.529Z,18.63
2023-04-13T15:41:31.712Z,18.55
2023-04-13T15:44:00.181Z,18.46
2023-04-13T15:46:27.578Z,18.39
2023-04-13T15:48:55.291Z,18.34
2023-04-13T15:51:23.180Z,18.31
2023-04-13T15:53:49.970Z,18.32
2023-04-13T15:56:17.331Z,18.32
2023-04-13T15:58:44.404Z,18.32
2023-04-13T16:01:12.037Z,18.35
2023-04-13T16:03:40.320Z,18.37
2023-04-13T16:06:07.850Z,18.40
2023-04-13T16:08:34.786Z,18.46
2023-04-13T16:11:01.717Z,18.53
2023-04-13T16:13:45.048Z,18.56
2023-04-13T16:16:15.406Z,18.61
2023-04-13T16:18:42.235Z,18.66
2023-04-13T16:21:10.699Z,18.68
2023-04-13T16:23:38.363Z,18.65
2023-04-13T16:26:06.277Z,18.57
2023-04-13T16:28:34.444Z,18.48
2023-04-13T16:31:01.419Z,18.35
2023-04-13T16:33:29.664Z,18.26
2023-04-13T16:35:57.766Z,18.19
2023-04-13T16:38:24.540Z,18.12
2023-04-13T16:40:51.365Z,18.04
2023-04-13T16:43:18.157Z,17.99
2023-04-13T16:45:45.083Z,17.94
2023-04-13T16:48:11.988Z,17.87
2023-04-13T16:50:38.811Z,17.80
2023-04-13T16:53:05.609Z,17.73
2023-04-13T16:55:32.420Z,17.65
2023-04-13T16:57:59.155Z,17.57
2023-04-13T17:00:26.528Z,17.50
2023-04-13T17:02:53.428Z,17.43
2023-04-13T17:05:20.540Z,17.33
2023-04-13T17:07:48.055Z,17.26
2023-04-13T17:10:15.032Z,17.18
2023-04-13T17:12:41.900Z,17.11
2023-04-13T17:15:09.931Z,17.02
2023-04-13T17:17:37.892Z,16.93
2023-04-13T17:20:06.399Z,16.87
2023-04-13T17:22:33.290Z,16.79
2023-04-13T17:25:00.918Z,16.73
2023-04-13T17:27:27.739Z,16.68
2023-04-13T17:29:54.809Z,16.65
2023-04-13T17:32:22.270Z,16.62
2023-04-13T17:34:50.171Z,16.61
2023-04-13T17:37:17.746Z,16.58
2023-04-13T17:39:50.451Z,16.57
2023-04-13T17:42:17.967Z,16.53
2023-04-13T17:44:44.887Z,16.52
2023-04-13T17:47:11.745Z,16.50
2023-04-13T17:49:38.643Z,16.47
2023-04-13T17:52:05.774Z,16.43
2023-04-13T17:54:33.177Z,16.38
2023-04-13T17:57:01.027Z,16.33
2023-04-13T17:59:28.090Z,16.29
2023-04-13T18:01:55.973Z,16.23
2023-04-13T18:04:22.908Z,16.20
2023-04-13T18:06:49.816Z,16.15
2023-04-13T18:09:16.656Z,16.09
2023-04-13T18:11:43.397Z,16.04
2023-04-13T18:14:12.989Z,16.00
2023-04-13T18:16:39.872Z,15.94
2023-04-13T18:19:06.737Z,15.90
2023-04-13T18:21:33.590Z,15.85
2023-04-13T18:24:01.709Z,15.81
2023-04-13T18:26:29.071Z,15.75
2023-04-13T18:28:55.935Z,15.72
2023-04-13T18:31:23.229Z,15.68
2023-04-13T18:33:50.005Z,15.61
2023-04-13T18:36:17.949Z,15.57
2023-04-13T18:38:45.309Z,15.51
2023-04-13T18:41:12.677Z,15.45
2023-04-13T18:43:39.662Z,15.40
2023-04-13T18:46:07.611Z,15.33
2023-04-13T18:48:35.085Z,15.27
2023-04-13T18:51:03.244Z,15.21
2023-04-13T18:53:30.585Z,15.15
2023-04-13T18:55:58.580Z,15.10
2023-04-13T18:58:26.199Z,15.03
2023-04-13T19:00:53.019Z,14.98
2023-04-13T19:03:20.027Z,14.91
2023-04-13T19:05:47.176Z,14.85
2023-04-13T19:08:15.186Z,14.78
2023-04-13T19:10:43.239Z,14.73
2023-04-13T19:13:10.190Z,14.66
2023-04-13T19:15:36.996Z,14.62
2023-04-13T19:18:04.391Z,14.55
2023-04-13T19:20:31.477Z,14.51
2023-04-13T19:22:58.351Z,14.44
2023-04-13T19:25:25.323Z,14.39
2023-04-13T19:27:52.128Z,14.33
2023-04-13T19:30:19.502Z,14.27
2023-04-13T19:32:48.558Z,14.23
2023-04-13T19:35:15.934Z,14.19
2023-04-13T19:37:42.745Z,14.12
2023-04-13T19:40:13.132Z,14.09
2023-04-13T19:42:44.338Z,14.05
2023-04-13T19:45:15.008Z,14.02
2023-04-13T19:47:42.340Z,13.97
2023-04-13T19:50:12.302Z,13.96
2023-04-13T19:52:41.294Z,13.94
2023-04-13T19:55:10.464Z,13.91
2023-04-13T19:57:41.756Z,13.90
2023-04-13T20:00:16.943Z,13.87
2023-04-13T20:02:46.910Z,13.84
2023-04-13T20:05:14.843Z,13.82
2023-04-13T20:07:41.953Z,13.80
2023-04-13T20:10:12.052Z,13.79
2023-04-13T20:12:39.015Z,13.77
2023-04-13T20:15:06.970Z,13.76
2023-04-13T20:17:33.869Z,13.73
2023-04-13T20:20:00.756Z,13.72
2023-04-13T20:22:28.019Z,13.69
2023-04-13T20:24:55.186Z,13.66
2023-04-13T20:27:22.759Z,13.63
2023-04-13T20:29:51.125Z,13.60
2023-04-13T20:32:17.905Z,13.55
2023-04-13T20:34:45.197Z,13.53
2023-04-13T20:37:14.194Z,13.47
2023-04-13T20:39:50.497Z,13.43
2023-04-13T20:42:19.351Z,13.40
2023-04-13T20:44:46.970Z,13.36
2023-04-13T20:47:14.187Z,13.33
2023-04-13T20:49:51.702Z,13.31
2023-04-13T20:52:19.673Z,13.28
2023-04-13T20:54:46.422Z,13.24
2023-04-13T20:57:13.319Z,13.24
2023-04-13T20:59:40.696Z,13.21
2023-04-13T21:02:09.000Z,13.18
2023-04-13T21:04:36.401Z,13.15
2023-04-13T21:07:03.827Z,13.13
2023-04-13T21:09:30.971Z,13.10
2023-04-13T21:11:57.939Z,13.06
2023-04-13T21:14:25.419Z,13.02
2023-04-13T21:16:52.724Z,12.98
2023-04-13T21:19:19.659Z,12.94
2023-04-13T21:21:46.453Z,12.89
2023-04-13T21:24:13.510Z,12.87
2023-04-13T21:26:40.400Z,12.82
2023-04-13T21:29:07.557Z,12.78
2023-04-13T21:31:34.539Z,12.75
2023-04-13T21:34:03.453Z,12.71
2023-04-13T21:39:00.723Z,12.64
2023-04-13T21:41:27.693Z,12.60
2023-04-13T21:43:54.468Z,12.55
2023-04-13T21:46:21.351Z,12.53
2023-04-13T21:48:48.170Z,12.52
2023-04-13T21:51:14.945Z,12.48
2023-04-13T21:53:41.808Z,12.46
2023-04-13T21:56:08.683Z,12.44
2023-04-13T21:58:41.641Z,12.42
2023-04-13T22:01:09.376Z,12.39
2023-04-13T22:03:38.691Z,12.36
2023-04-13T22:06:08.960Z,12.34
2023-04-13T22:08:36.413Z,12.32
2023-04-13T22:11:03.608Z,12.30
2023-04-13T22:13:31.007Z,12.26
2023-04-13T22:15:58.050Z,12.23
2023-04-13T22:18:26.346Z,12.20
2023-04-13T22:20:53.217Z,12.17
2023-04-13T22:23:20.219Z,12.14
2023-04-13T22:25:58.895Z,12.10
2023-04-13T22:28:26.204Z,12.06
2023-04-13T22:30:53.235Z,12.04
2023-04-13T22:33:20.797Z,11.99
2023-04-13T22:35:50.694Z,11.96
2023-04-13T22:38:18.727Z,11.91
2023-04-13T22:40:45.824Z,11.88
2023-04-13T22:43:12.638Z,11.85
2023-04-13T22:45:39.469Z,11.81
2023-04-13T22:48:09.112Z,11.77
2023-04-13T22:50:39.931Z,11.73
2023-04-13T22:53:06.726Z,11.67
2023-04-13T22:55:33.514Z,11.62
2023-04-13T22:58:00.305Z,11.61
2023-04-13T23:00:27.075Z,11.56
2023-04-13T23:02:55.798Z,11.53
2023-04-13T23:05:23.188Z,11.50
2023-04-13T23:07:50.589Z,11.46
2023-04-13T23:10:17.741Z,11.44
2023-04-13T23:12:45.377Z,11.40
2023-04-13T23:15:13.361Z,11.38
2023-04-13T23:17:40.734Z,11.35
2023-04-13T23:20:08.224Z,11.30
2023-04-13T23:22:35.209Z,11.25
2023-04-13T23:25:01.972Z,11.22
2023-04-13T23:27:28.794Z,11.20
2023-04-13T23:29:55.629Z,11.15
2023-04-13T23:32:22.421Z,11.13
2023-04-13T23:34:50.799Z,11.10
2023-04-13T23:37:17.578Z,11.07
2023-04-13T23:39:44.340Z,11.03
2023-04-13T23:42:11.849Z,11.00
2023-04-13T23:44:38.674Z,10.97
2023-04-13T23:47:06.172Z,10.94
2023-04-13T23:49:32.924Z,10.91
2023-04-13T23:51:59.691Z,10.87
2023-04-13T23:54:26.538Z,10.85
2023-04-13T23:56:53.304Z,10.82
2023-04-13T23:59:20.534Z,10.80
